sensor_id;sensor_type;location;lat;lon;timestamp;P1;durP1;ratioP1;P2;durP2;ratioP2
28007;SDS011;15333;50.010;20.020;2023-07-22T00:00:34;15.50;;;13.10;;
28007;SDS011;15333;50.010;20.020;2023-07-22T00:03:54;18.58;;;14.48;;
28007;SDS011;15333;50.010;20.020;2023-07-22T00:06:56;19.23;;;15.15;;
28007;SDS011;15333;50.010;20.020;2023-07-22T00:09:56;22.15;;;15.05;;
28007;SDS011;15333;50.010;20.020;2023-07-22T00:12:58;23.90;;;17.38;;
28007;SDS011;15333;50.010;20.020;2023-07-22T00:15:59;22.73;;;17.50;;
28007;SDS011;15333;50.010;20.020;2023-07-22T00:19:00;26.30;;;19.45;;
28007;SDS011;15333;50.010;20.020;2023-07-22T00:22:02;28.65;;;19.80;;
28007;SDS011;15333;50.010;20.020;2023-07-22T00:25:03;29.23;;;19.65;;
28007;SDS011;15333;50.010;20.020;2023-07-22T00:28:04;27.27;;;19.33;;
28007;SDS011;15333;50.010;20.020;2023-07-22T00:31:05;28.85;;;20.70;;
28007;SDS011;15333;50.010;20.020;2023-07-22T00:34:06;29.23;;;21.45;;
28007;SDS011;15333;50.010;20.020;2023-07-22T00:37:07;29.05;;;22.50;;
28007;SDS011;15333;50.010;20.020;2023-07-22T00:40:09;30.63;;;23.58;;
28007;SDS011;15333;50.010;20.020;2023-07-22T00:43:12;34.95;;;25.25;;
28007;SDS011;15333;50.010;20.020;2023-07-22T00:46:13;32.05;;;26.08;;
28007;SDS011;15333;50.010;20.020;2023-07-22T00:49:14;29.38;;;23.02;;
28007;SDS011;15333;50.010;20.020;2023-07-22T00:52:15;38.53;;;25.60;;
28007;SDS011;15333;50.010;20.020;2023-07-22T00:55:17;33.70;;;26.90;;
28007;SDS011;15333;50.010;20.020;2023-07-22T00:58:18;35.75;;;27.65;;
28007;SDS011;15333;50.010;20.020;2023-07-22T01:01:20;39.20;;;27.70;;
28007;SDS011;15333;50.010;20.020;2023-07-22T01:04:22;34.75;;;25.75;;
28007;SDS011;15333;50.010;20.020;2023-07-22T01:07:24;38.13;;;27.58;;
28007;SDS011;15333;50.010;20.020;2023-07-22T01:10:25;39.30;;;30.77;;
28007;SDS011;15333;50.010;20.020;2023-07-22T01:13:26;37.15;;;29.20;;
28007;SDS011;15333;50.010;20.020;2023-07-22T01:16:27;34.67;;;27.40;;
28007;SDS011;15333;50.010;20.020;2023-07-22T01:19:29;38.88;;;30.95;;
28007;SDS011;15333;50.010;20.020;2023-07-22T01:22:31;36.45;;;27.90;;
28007;SDS011;15333;50.010;20.020;2023-07-22T01:25:33;36.92;;;29.67;;
28007;SDS011;15333;50.010;20.020;2023-07-22T01:28:34;36.58;;;29.58;;
28007;SDS011;15333;50.010;20.020;2023-07-22T01:31:37;51.63;;;31.15;;
28007;SDS011;15333;50.010;20.020;2023-07-22T01:34:38;40.28;;;28.90;;
28007;SDS011;15333;50.010;20.020;2023-07-22T01:37:40;41.13;;;32.10;;
28007;SDS011;15333;50.010;20.020;2023-07-22T01:40:41;40.92;;;30.73;;
28007;SDS011;15333;50.010;20.020;2023-07-22T01:43:42;43.17;;;33.65;;
28007;SDS011;15333;50.010;20.020;2023-07-22T01:46:42;42.47;;;32.15;;
28007;SDS011;15333;50.010;20.020;2023-07-22T01:49:43;35.80;;;29.77;;
28007;SDS011;15333;50.010;20.020;2023-07-22T01:52:45;41.88;;;31.75;;
28007;SDS011;15333;50.010;20.020;2023-07-22T01:55:47;40.78;;;31.27;;
28007;SDS011;15333;50.010;20.020;2023-07-22T01:58:48;36.30;;;29.65;;
28007;SDS011;15333;50.010;20.020;2023-07-22T02:01:49;38.53;;;30.25;;
28007;SDS011;15333;50.010;20.020;2023-07-22T02:04:50;50.58;;;35.10;;
28007;SDS011;15333;50.010;20.020;2023-07-22T02:07:51;38.13;;;29.10;;
28007;SDS011;15333;50.010;20.020;2023-07-22T02:10:51;42.67;;;31.58;;
28007;SDS011;15333;50.010;20.020;2023-07-22T02:13:52;40.35;;;28.88;;
28007;SDS011;15333;50.010;20.020;2023-07-22T02:16:53;36.05;;;26.10;;
28007;SDS011;15333;50.010;20.020;2023-07-22T02:19:54;34.53;;;26.40;;
28007;SDS011;15333;50.010;20.020;2023-07-22T02:22:55;32.90;;;24.40;;
28007;SDS011;15333;50.010;20.020;2023-07-22T02:25:56;31.45;;;24.15;;
28007;SDS011;15333;50.010;20.020;2023-07-22T02:28:57;34.42;;;24.58;;
28007;SDS011;15333;50.010;20.020;2023-07-22T02:31:58;27.73;;;22.27;;
28007;SDS011;15333;50.010;20.020;2023-07-22T02:34:59;28.30;;;22.25;;
28007;SDS011;15333;50.010;20.020;2023-07-22T02:38:00;29.70;;;21.75;;
28007;SDS011;15333;50.010;20.020;2023-07-22T02:41:03;26.45;;;21.23;;
28007;SDS011;15333;50.010;20.020;2023-07-22T02:44:07;22.25;;;18.45;;
28007;SDS011;15333;50.010;20.020;2023-07-22T02:47:08;24.75;;;18.52;;
28007;SDS011;15333;50.010;20.020;2023-07-22T02:50:09;21.35;;;17.83;;
28007;SDS011;15333;50.010;20.020;2023-07-22T02:53:11;20.90;;;16.20;;
28007;SDS011;15333;50.010;20.020;2023-07-22T02:56:12;19.73;;;15.77;;
28007;SDS011;15333;50.010;20.020;2023-07-22T02:59:13;17.50;;;13.65;;
28007;SDS011;15333;50.010;20.020;2023-07-22T03:02:14;17.05;;;12.98;;
28007;SDS011;15333;50.010;20.020;2023-07-22T03:05:16;16.23;;;12.38;;
28007;SDS011;15333;50.010;20.020;2023-07-22T03:08:17;13.38;;;11.98;;
28007;SDS011;15333;50.010;20.020;2023-07-22T03:11:18;13.77;;;12.30;;
28007;SDS011;15333;50.010;20.020;2023-07-22T03:14:19;10.82;;;9.73;;
28007;SDS011;15333;50.010;20.020;2023-07-22T03:17:22;10.50;;;9.40;;
28007;SDS011;15333;50.010;20.020;2023-07-22T03:20:23;10.15;;;8.38;;
28007;SDS011;15333;50.010;20.020;2023-07-22T03:23:25;11.63;;;8.60;;
28007;SDS011;15333;50.010;20.020;2023-07-22T03:26:26;8.93;;;6.75;;
28007;SDS011;15333;50.010;20.020;2023-07-22T03:29:27;9.73;;;6.95;;
28007;SDS011;15333;50.010;20.020;2023-07-22T03:32:28;7.88;;;6.30;;
28007;SDS011;15333;50.010;20.020;2023-07-22T03:35:29;8.30;;;6.20;;
28007;SDS011;15333;50.010;20.020;2023-07-22T03:38:30;8.02;;;5.50;;
28007;SDS011;15333;50.010;20.020;2023-07-22T03:41:31;9.98;;;5.70;;
28007;SDS011;15333;50.010;20.020;2023-07-22T03:44:32;7.03;;;5.53;;
28007;SDS011;15333;50.010;20.020;2023-07-22T03:47:33;7.60;;;5.57;;
28007;SDS011;15333;50.010;20.020;2023-07-22T03:50:34;7.30;;;5.78;;
28007;SDS011;15333;50.010;20.020;2023-07-22T03:53:35;7.10;;;5.97;;
28007;SDS011;15333;50.010;20.020;2023-07-22T03:56:36;7.35;;;5.90;;
28007;SDS011;15333;50.010;20.020;2023-07-22T03:59:38;7.70;;;6.32;;
28007;SDS011;15333;50.010;20.020;2023-07-22T04:02:40;8.85;;;6.57;;
28007;SDS011;15333;50.010;20.020;2023-07-22T04:05:41;8.63;;;6.00;;
28007;SDS011;15333;50.010;20.020;2023-07-22T04:08:42;8.27;;;6.03;;
28007;SDS011;15333;50.010;20.020;2023-07-22T04:11:42;8.70;;;6.07;;
28007;SDS011;15333;50.010;20.020;2023-07-22T04:14:43;7.22;;;5.90;;
28007;SDS011;15333;50.010;20.020;2023-07-22T04:17:44;8.68;;;5.68;;
28007;SDS011;15333;50.010;20.020;2023-07-22T04:20:46;8.75;;;5.65;;
28007;SDS011;15333;50.010;20.020;2023-07-22T04:23:48;8.45;;;5.40;;
28007;SDS011;15333;50.010;20.020;2023-07-22T04:26:50;6.90;;;5.97;;
28007;SDS011;15333;50.010;20.020;2023-07-22T04:29:51;9.23;;;6.25;;
28007;SDS011;15333;50.010;20.020;2023-07-22T04:32:52;9.40;;;7.65;;
28007;SDS011;15333;50.010;20.020;2023-07-22T04:35:55;11.63;;;7.25;;
28007;SDS011;15333;50.010;20.020;2023-07-22T04:38:58;9.27;;;7.90;;
28007;SDS011;15333;50.010;20.020;2023-07-22T04:41:59;11.32;;;7.78;;
28007;SDS011;15333;50.010;20.020;2023-07-22T04:45:00;12.30;;;8.63;;
28007;SDS011;15333;50.010;20.020;2023-07-22T04:48:02;12.80;;;8.77;;
28007;SDS011;15333;50.010;20.020;2023-07-22T04:51:03;14.85;;;9.43;;
28007;SDS011;15333;50.010;20.020;2023-07-22T04:54:04;16.33;;;10.82;;
28007;SDS011;15333;50.010;20.020;2023-07-22T04:57:05;15.63;;;12.82;;
28007;SDS011;15333;50.010;20.020;2023-07-22T05:00:07;17.42;;;12.63;;
28007;SDS011;15333;50.010;20.020;2023-07-22T05:03:19;15.88;;;12.80;;
28007;SDS011;15333;50.010;20.020;2023-07-22T05:06:20;20.00;;;13.45;;
28007;SDS011;15333;50.010;20.020;2023-07-22T05:09:22;20.23;;;13.43;;
28007;SDS011;15333;50.010;20.020;2023-07-22T05:12:22;17.35;;;12.52;;
28007;SDS011;15333;50.010;20.020;2023-07-22T05:15:25;17.02;;;13.48;;
28007;SDS011;15333;50.010;20.020;2023-07-22T05:18:25;16.55;;;13.40;;
28007;SDS011;15333;50.010;20.020;2023-07-22T05:21:27;17.88;;;12.52;;
28007;SDS011;15333;50.010;20.020;2023-07-22T05:24:27;18.60;;;12.48;;
28007;SDS011;15333;50.010;20.020;2023-07-22T05:27:28;15.55;;;12.68;;
28007;SDS011;15333;50.010;20.020;2023-07-22T05:30:29;14.27;;;12.52;;
28007;SDS011;15333;50.010;20.020;2023-07-22T05:33:31;19.50;;;12.32;;
28007;SDS011;15333;50.010;20.020;2023-07-22T05:36:37;17.42;;;13.55;;
28007;SDS011;15333;50.010;20.020;2023-07-22T05:39:39;18.65;;;13.02;;
28007;SDS011;15333;50.010;20.020;2023-07-22T05:42:40;18.30;;;13.85;;
28007;SDS011;15333;50.010;20.020;2023-07-22T05:45:41;16.95;;;13.43;;
28007;SDS011;15333;50.010;20.020;2023-07-22T05:48:42;17.02;;;14.07;;
28007;SDS011;15333;50.010;20.020;2023-07-22T05:51:43;19.63;;;15.95;;
28007;SDS011;15333;50.010;20.020;2023-07-22T05:54:44;21.10;;;15.40;;
28007;SDS011;15333;50.010;20.020;2023-07-22T05:57:45;20.67;;;16.48;;
28007;SDS011;15333;50.010;20.020;2023-07-22T06:00:46;19.38;;;16.48;;
28007;SDS011;15333;50.010;20.020;2023-07-22T06:03:47;22.77;;;15.98;;
28007;SDS011;15333;50.010;20.020;2023-07-22T06:06:48;20.38;;;16.08;;
28007;SDS011;15333;50.010;20.020;2023-07-22T06:09:49;23.25;;;16.10;;
28007;SDS011;15333;50.010;20.020;2023-07-22T06:12:50;20.88;;;16.60;;
28007;SDS011;15333;50.010;20.020;2023-07-22T06:15:51;22.67;;;17.48;;
28007;SDS011;15333;50.010;20.020;2023-07-22T06:18:52;21.30;;;17.52;;
28007;SDS011;15333;50.010;20.020;2023-07-22T06:21:53;23.77;;;18.05;;
28007;SDS011;15333;50.010;20.020;2023-07-22T06:24:54;25.13;;;17.10;;
28007;SDS011;15333;50.010;20.020;2023-07-22T06:27:55;20.27;;;16.52;;
28007;SDS011;15333;50.010;20.020;2023-07-22T06:30:56;20.73;;;15.30;;
28007;SDS011;15333;50.010;20.020;2023-07-22T06:33:58;17.55;;;14.40;;
28007;SDS011;15333;50.010;20.020;2023-07-22T06:36:59;19.38;;;14.13;;
28007;SDS011;15333;50.010;20.020;2023-07-22T06:40:00;21.73;;;14.60;;
28007;SDS011;15333;50.010;20.020;2023-07-22T06:43:02;18.90;;;14.35;;
28007;SDS011;15333;50.010;20.020;2023-07-22T06:46:03;17.73;;;12.98;;
28007;SDS011;15333;50.010;20.020;2023-07-22T06:49:04;18.67;;;14.85;;
28007;SDS011;15333;50.010;20.020;2023-07-22T06:52:05;20.45;;;14.95;;
28007;SDS011;15333;50.010;20.020;2023-07-22T06:55:07;20.98;;;15.43;;
28007;SDS011;15333;50.010;20.020;2023-07-22T06:58:08;21.48;;;15.38;;
28007;SDS011;15333;50.010;20.020;2023-07-22T07:01:09;21.95;;;15.52;;
28007;SDS011;15333;50.010;20.020;2023-07-22T07:04:10;21.90;;;16.00;;
28007;SDS011;15333;50.010;20.020;2023-07-22T07:07:11;22.10;;;16.90;;
28007;SDS011;15333;50.010;20.020;2023-07-22T07:10:13;18.95;;;14.77;;
28007;SDS011;15333;50.010;20.020;2023-07-22T07:13:14;18.00;;;15.15;;
28007;SDS011;15333;50.010;20.020;2023-07-22T07:16:25;18.30;;;15.25;;
28007;SDS011;15333;50.010;20.020;2023-07-22T07:19:28;19.10;;;15.20;;
28007;SDS011;15333;50.010;20.020;2023-07-22T07:22:29;20.80;;;16.20;;
28007;SDS011;15333;50.010;20.020;2023-07-22T07:25:30;17.25;;;14.18;;
28007;SDS011;15333;50.010;20.020;2023-07-22T07:28:31;20.85;;;15.35;;
28007;SDS011;15333;50.010;20.020;2023-07-22T07:31:31;21.33;;;15.27;;
28007;SDS011;15333;50.010;20.020;2023-07-22T07:34:32;17.65;;;14.15;;
28007;SDS011;15333;50.010;20.020;2023-07-22T07:37:33;19.88;;;14.43;;
28007;SDS011;15333;50.010;20.020;2023-07-22T07:40:34;14.98;;;12.68;;
28007;SDS011;15333;50.010;20.020;2023-07-22T07:43:35;17.75;;;12.80;;
28007;SDS011;15333;50.010;20.020;2023-07-22T07:46:36;13.68;;;11.75;;
28007;SDS011;15333;50.010;20.020;2023-07-22T07:49:37;16.83;;;11.75;;
28007;SDS011;15333;50.010;20.020;2023-07-22T07:52:38;11.95;;;10.00;;
28007;SDS011;15333;50.010;20.020;2023-07-22T07:55:38;9.55;;;8.55;;
28007;SDS011;15333;50.010;20.020;2023-07-22T07:58:40;10.98;;;8.90;;
28007;SDS011;15333;50.010;20.020;2023-07-22T08:01:41;14.35;;;9.18;;
28007;SDS011;15333;50.010;20.020;2023-07-22T08:04:42;9.50;;;8.48;;
28007;SDS011;15333;50.010;20.020;2023-07-22T08:07:43;10.65;;;7.38;;
28007;SDS011;15333;50.010;20.020;2023-07-22T08:10:44;9.25;;;7.05;;
28007;SDS011;15333;50.010;20.020;2023-07-22T08:13:45;9.30;;;6.80;;
28007;SDS011;15333;50.010;20.020;2023-07-22T08:16:46;7.57;;;6.10;;
28007;SDS011;15333;50.010;20.020;2023-07-22T08:19:47;9.63;;;6.28;;
28007;SDS011;15333;50.010;20.020;2023-07-22T08:22:48;7.32;;;5.93;;
28007;SDS011;15333;50.010;20.020;2023-07-22T08:25:49;8.40;;;5.80;;
28007;SDS011;15333;50.010;20.020;2023-07-22T08:28:50;7.38;;;5.25;;
28007;SDS011;15333;50.010;20.020;2023-07-22T08:31:51;8.95;;;5.40;;
28007;SDS011;15333;50.010;20.020;2023-07-22T08:34:52;7.45;;;5.38;;
28007;SDS011;15333;50.010;20.020;2023-07-22T08:37:53;10.80;;;5.70;;
28007;SDS011;15333;50.010;20.020;2023-07-22T08:40:54;8.52;;;5.70;;
28007;SDS011;15333;50.010;20.020;2023-07-22T08:43:55;10.95;;;5.70;;
28007;SDS011;15333;50.010;20.020;2023-07-22T08:46:59;5.40;;;4.60;;
28007;SDS011;15333;50.010;20.020;2023-07-22T08:50:04;6.10;;;5.00;;
28007;SDS011;15333;50.010;20.020;2023-07-22T08:53:07;6.88;;;5.20;;
28007;SDS011;15333;50.010;20.020;2023-07-22T08:56:08;8.73;;;5.28;;
28007;SDS011;15333;50.010;20.020;2023-07-22T08:59:11;10.90;;;6.05;;
28007;SDS011;15333;50.010;20.020;2023-07-22T09:02:14;9.65;;;6.50;;
28007;SDS011;15333;50.010;20.020;2023-07-22T09:05:16;9.20;;;5.93;;
28007;SDS011;15333;50.010;20.020;2023-07-22T09:08:18;10.75;;;6.13;;
28007;SDS011;15333;50.010;20.020;2023-07-22T09:11:19;10.32;;;6.82;;
28007;SDS011;15333;50.010;20.020;2023-07-22T09:14:19;8.40;;;6.18;;
28007;SDS011;15333;50.010;20.020;2023-07-22T09:17:22;7.80;;;6.32;;
28007;SDS011;15333;50.010;20.020;2023-07-22T09:20:23;6.07;;;5.47;;
28007;SDS011;15333;50.010;20.020;2023-07-22T09:23:32;8.98;;;5.28;;
28007;SDS011;15333;50.010;20.020;2023-07-22T09:26:36;7.75;;;5.10;;
28007;SDS011;15333;50.010;20.020;2023-07-22T09:29:37;6.95;;;5.53;;
28007;SDS011;15333;50.010;20.020;2023-07-22T09:32:42;5.85;;;4.95;;
28007;SDS011;15333;50.010;20.020;2023-07-22T09:38:58;5.80;;;4.47;;
28007;SDS011;15333;50.010;20.020;2023-07-22T09:42:03;6.72;;;4.70;;
28007;SDS011;15333;50.010;20.020;2023-07-22T09:45:06;7.18;;;4.47;;
28007;SDS011;15333;50.010;20.020;2023-07-22T09:48:08;6.38;;;3.72;;
28007;SDS011;15333;50.010;20.020;2023-07-22T09:51:15;6.18;;;4.28;;
28007;SDS011;15333;50.010;20.020;2023-07-22T09:54:17;7.30;;;3.80;;
28007;SDS011;15333;50.010;20.020;2023-07-22T09:57:20;4.32;;;3.92;;
28007;SDS011;15333;50.010;20.020;2023-07-22T10:00:23;3.50;;;3.20;;
28007;SDS011;15333;50.010;20.020;2023-07-22T10:03:28;5.15;;;3.65;;
28007;SDS011;15333;50.010;20.020;2023-07-22T10:06:33;6.03;;;3.50;;
28007;SDS011;15333;50.010;20.020;2023-07-22T10:09:35;4.32;;;3.50;;
28007;SDS011;15333;50.010;20.020;2023-07-22T10:12:39;4.22;;;3.38;;
28007;SDS011;15333;50.010;20.020;2023-07-22T10:15:42;8.18;;;4.03;;
28007;SDS011;15333;50.010;20.020;2023-07-22T10:18:46;7.13;;;3.45;;
28007;SDS011;15333;50.010;20.020;2023-07-22T10:21:48;3.20;;;2.90;;
28007;SDS011;15333;50.010;20.020;2023-07-22T10:24:50;5.10;;;3.55;;
28007;SDS011;15333;50.010;20.020;2023-07-22T10:27:53;3.83;;;3.15;;
28007;SDS011;15333;50.010;20.020;2023-07-22T10:30:54;5.15;;;3.33;;
28007;SDS011;15333;50.010;20.020;2023-07-22T10:33:57;5.88;;;3.50;;
28007;SDS011;15333;50.010;20.020;2023-07-22T10:36:58;4.05;;;3.22;;
28007;SDS011;15333;50.010;20.020;2023-07-22T10:39:59;5.75;;;3.35;;
28007;SDS011;15333;50.010;20.020;2023-07-22T10:43:05;3.47;;;2.97;;
28007;SDS011;15333;50.010;20.020;2023-07-22T10:46:09;3.50;;;3.10;;
28007;SDS011;15333;50.010;20.020;2023-07-22T10:49:15;4.80;;;3.15;;
28007;SDS011;15333;50.010;20.020;2023-07-22T10:52:37;3.22;;;2.92;;
28007;SDS011;15333;50.010;20.020;2023-07-22T10:59:12;4.32;;;2.95;;
28007;SDS011;15333;50.010;20.020;2023-07-22T11:02:22;3.47;;;2.67;;
28007;SDS011;15333;50.010;20.020;2023-07-22T11:05:28;4.72;;;3.30;;
28007;SDS011;15333;50.010;20.020;2023-07-22T11:08:53;4.90;;;2.90;;
28007;SDS011;15333;50.010;20.020;2023-07-22T11:12:00;3.17;;;2.72;;
28007;SDS011;15333;50.010;20.020;2023-07-22T11:15:14;3.08;;;2.45;;
28007;SDS011;15333;50.010;20.020;2023-07-22T11:18:17;3.33;;;2.85;;
28007;SDS011;15333;50.010;20.020;2023-07-22T11:21:18;3.97;;;3.10;;
28007;SDS011;15333;50.010;20.020;2023-07-22T11:24:19;2.60;;;2.33;;
28007;SDS011;15333;50.010;20.020;2023-07-22T11:27:20;4.03;;;2.90;;
28007;SDS011;15333;50.010;20.020;2023-07-22T11:30:23;3.72;;;2.72;;
28007;SDS011;15333;50.010;20.020;2023-07-22T11:33:25;3.22;;;2.55;;
28007;SDS011;15333;50.010;20.020;2023-07-22T11:36:26;2.95;;;2.50;;
28007;SDS011;15333;50.010;20.020;2023-07-22T11:39:27;3.25;;;2.78;;
28007;SDS011;15333;50.010;20.020;2023-07-22T11:42:33;4.97;;;2.38;;
28007;SDS011;15333;50.010;20.020;2023-07-22T11:45:37;3.50;;;2.80;;
28007;SDS011;15333;50.010;20.020;2023-07-22T11:48:38;5.38;;;3.00;;
28007;SDS011;15333;50.010;20.020;2023-07-22T11:51:42;2.97;;;2.40;;
28007;SDS011;15333;50.010;20.020;2023-07-22T11:54:43;3.92;;;3.03;;
28007;SDS011;15333;50.010;20.020;2023-07-22T11:57:51;3.60;;;2.78;;
28007;SDS011;15333;50.010;20.020;2023-07-22T12:01:05;3.63;;;2.70;;
28007;SDS011;15333;50.010;20.020;2023-07-22T12:04:12;3.47;;;2.53;;
28007;SDS011;15333;50.010;20.020;2023-07-22T12:07:27;4.70;;;2.80;;
28007;SDS011;15333;50.010;20.020;2023-07-22T12:10:29;4.65;;;2.90;;
28007;SDS011;15333;50.010;20.020;2023-07-22T12:13:35;4.22;;;2.95;;
28007;SDS011;15333;50.010;20.020;2023-07-22T12:16:38;5.57;;;2.83;;
28007;SDS011;15333;50.010;20.020;2023-07-22T12:19:50;4.18;;;2.90;;
28007;SDS011;15333;50.010;20.020;2023-07-22T12:22:52;5.30;;;2.83;;
28007;SDS011;15333;50.010;20.020;2023-07-22T12:25:54;3.38;;;3.08;;
28007;SDS011;15333;50.010;20.020;2023-07-22T12:28:55;3.97;;;3.45;;
28007;SDS011;15333;50.010;20.020;2023-07-22T12:31:56;8.18;;;3.47;;
28007;SDS011;15333;50.010;20.020;2023-07-22T12:34:57;3.90;;;2.70;;
28007;SDS011;15333;50.010;20.020;2023-07-22T12:37:57;4.90;;;3.20;;
28007;SDS011;15333;50.010;20.020;2023-07-22T12:40:59;5.25;;;3.03;;
28007;SDS011;15333;50.010;20.020;2023-07-22T12:44:00;4.53;;;2.92;;
28007;SDS011;15333;50.010;20.020;2023-07-22T12:47:02;5.15;;;3.15;;
28007;SDS011;15333;50.010;20.020;2023-07-22T12:50:02;5.78;;;3.38;;
28007;SDS011;15333;50.010;20.020;2023-07-22T12:53:05;5.70;;;3.30;;
28007;SDS011;15333;50.010;20.020;2023-07-22T12:56:06;3.58;;;3.10;;
28007;SDS011;15333;50.010;20.020;2023-07-22T12:59:07;9.02;;;3.33;;
28007;SDS011;15333;50.010;20.020;2023-07-22T13:02:07;6.75;;;4.15;;
28007;SDS011;15333;50.010;20.020;2023-07-22T13:05:09;5.53;;;3.83;;
28007;SDS011;15333;50.010;20.020;2023-07-22T13:08:10;3.85;;;2.92;;
28007;SDS011;15333;50.010;20.020;2023-07-22T13:11:11;6.47;;;3.22;;
28007;SDS011;15333;50.010;20.020;2023-07-22T13:14:11;6.03;;;3.22;;
28007;SDS011;15333;50.010;20.020;2023-07-22T13:17:13;6.00;;;3.40;;
28007;SDS011;15333;50.010;20.020;2023-07-22T13:20:13;5.28;;;3.10;;
28007;SDS011;15333;50.010;20.020;2023-07-22T13:23:14;5.13;;;3.42;;
28007;SDS011;15333;50.010;20.020;2023-07-22T13:26:15;4.20;;;3.15;;
28007;SDS011;15333;50.010;20.020;2023-07-22T13:29:16;3.78;;;2.80;;
28007;SDS011;15333;50.010;20.020;2023-07-22T13:32:17;4.38;;;2.78;;
28007;SDS011;15333;50.010;20.020;2023-07-22T13:35:18;4.50;;;3.42;;
28007;SDS011;15333;50.010;20.020;2023-07-22T13:38:19;3.60;;;2.90;;
28007;SDS011;15333;50.010;20.020;2023-07-22T13:41:20;5.05;;;2.70;;
28007;SDS011;15333;50.010;20.020;2023-07-22T13:44:21;5.63;;;2.78;;
28007;SDS011;15333;50.010;20.020;2023-07-22T13:47:22;3.72;;;2.90;;
28007;SDS011;15333;50.010;20.020;2023-07-22T13:50:23;4.15;;;3.35;;
28007;SDS011;15333;50.010;20.020;2023-07-22T13:53:24;4.15;;;3.00;;
28007;SDS011;15333;50.010;20.020;2023-07-22T13:56:25;3.80;;;2.90;;
28007;SDS011;15333;50.010;20.020;2023-07-22T13:59:26;3.30;;;2.75;;
28007;SDS011;15333;50.010;20.020;2023-07-22T14:02:27;4.97;;;3.10;;
28007;SDS011;15333;50.010;20.020;2023-07-22T14:05:28;3.63;;;2.88;;
28007;SDS011;15333;50.010;20.020;2023-07-22T14:08:28;4.03;;;3.08;;
28007;SDS011;15333;50.010;20.020;2023-07-22T14:11:30;5.10;;;3.15;;
28007;SDS011;15333;50.010;20.020;2023-07-22T14:14:31;3.17;;;2.88;;
28007;SDS011;15333;50.010;20.020;2023-07-22T14:17:32;5.30;;;3.00;;
28007;SDS011;15333;50.010;20.020;2023-07-22T14:20:33;3.72;;;2.80;;
28007;SDS011;15333;50.010;20.020;2023-07-22T14:23:34;3.35;;;2.78;;
28007;SDS011;15333;50.010;20.020;2023-07-22T14:26:34;8.57;;;3.30;;
28007;SDS011;15333;50.010;20.020;2023-07-22T14:29:35;4.13;;;2.90;;
28007;SDS011;15333;50.010;20.020;2023-07-22T14:32:37;4.10;;;3.08;;
28007;SDS011;15333;50.010;20.020;2023-07-22T14:35:38;7.22;;;3.45;;
28007;SDS011;15333;50.010;20.020;2023-07-22T14:38:39;5.22;;;3.08;;
28007;SDS011;15333;50.010;20.020;2023-07-22T14:41:40;3.67;;;3.15;;
28007;SDS011;15333;50.010;20.020;2023-07-22T14:44:43;7.05;;;3.35;;
28007;SDS011;15333;50.010;20.020;2023-07-22T14:47:44;5.35;;;3.13;;
28007;SDS011;15333;50.010;20.020;2023-07-22T14:50:45;4.75;;;2.80;;
28007;SDS011;15333;50.010;20.020;2023-07-22T14:53:46;3.58;;;2.97;;
28007;SDS011;15333;50.010;20.020;2023-07-22T14:56:46;3.88;;;2.67;;
28007;SDS011;15333;50.010;20.020;2023-07-22T14:59:47;7.40;;;3.35;;
28007;SDS011;15333;50.010;20.020;2023-07-22T15:02:49;3.90;;;2.67;;
28007;SDS011;15333;50.010;20.020;2023-07-22T15:05:51;3.40;;;2.95;;
28007;SDS011;15333;50.010;20.020;2023-07-22T15:08:52;4.22;;;2.70;;
28007;SDS011;15333;50.010;20.020;2023-07-22T15:11:53;5.70;;;3.00;;
28007;SDS011;15333;50.010;20.020;2023-07-22T15:14:54;4.53;;;3.33;;
28007;SDS011;15333;50.010;20.020;2023-07-22T15:17:55;3.20;;;2.75;;
28007;SDS011;15333;50.010;20.020;2023-07-22T15:20:56;4.40;;;3.40;;
28007;SDS011;15333;50.010;20.020;2023-07-22T15:23:57;5.47;;;3.05;;
28007;SDS011;15333;50.010;20.020;2023-07-22T15:26:58;3.38;;;3.05;;
28007;SDS011;15333;50.010;20.020;2023-07-22T15:29:59;3.28;;;2.97;;
28007;SDS011;15333;50.010;20.020;2023-07-22T15:32:59;9.77;;;3.88;;
28007;SDS011;15333;50.010;20.020;2023-07-22T15:36:00;5.45;;;3.67;;
28007;SDS011;15333;50.010;20.020;2023-07-22T15:39:01;6.95;;;3.65;;
28007;SDS011;15333;50.010;20.020;2023-07-22T15:42:03;4.15;;;3.65;;
28007;SDS011;15333;50.010;20.020;2023-07-22T15:45:04;4.40;;;3.53;;
28007;SDS011;15333;50.010;20.020;2023-07-22T15:48:06;3.67;;;3.35;;
28007;SDS011;15333;50.010;20.020;2023-07-22T15:51:06;4.13;;;3.53;;
28007;SDS011;15333;50.010;20.020;2023-07-22T15:54:08;3.67;;;3.30;;
28007;SDS011;15333;50.010;20.020;2023-07-22T15:57:08;5.05;;;3.50;;
28007;SDS011;15333;50.010;20.020;2023-07-22T16:00:09;5.97;;;3.72;;
28007;SDS011;15333;50.010;20.020;2023-07-22T16:03:12;4.70;;;3.72;;
28007;SDS011;15333;50.010;20.020;2023-07-22T16:06:14;4.55;;;3.50;;
28007;SDS011;15333;50.010;20.020;2023-07-22T16:09:15;7.95;;;3.83;;
28007;SDS011;15333;50.010;20.020;2023-07-22T16:12:16;4.78;;;3.10;;
28007;SDS011;15333;50.010;20.020;2023-07-22T16:15:17;3.78;;;3.28;;
28007;SDS011;15333;50.010;20.020;2023-07-22T16:18:19;6.45;;;4.00;;
28007;SDS011;15333;50.010;20.020;2023-07-22T16:21:20;5.15;;;3.88;;
28007;SDS011;15333;50.010;20.020;2023-07-22T16:24:21;4.90;;;3.70;;
28007;SDS011;15333;50.010;20.020;2023-07-22T16:27:22;4.53;;;3.50;;
28007;SDS011;15333;50.010;20.020;2023-07-22T16:30:23;4.60;;;3.60;;
28007;SDS011;15333;50.010;20.020;2023-07-22T16:33:23;4.07;;;3.40;;
28007;SDS011;15333;50.010;20.020;2023-07-22T16:36:25;4.10;;;3.50;;
28007;SDS011;15333;50.010;20.020;2023-07-22T16:39:25;5.55;;;3.70;;
28007;SDS011;15333;50.010;20.020;2023-07-22T16:42:26;7.43;;;3.53;;
28007;SDS011;15333;50.010;20.020;2023-07-22T16:45:27;4.43;;;3.80;;
28007;SDS011;15333;50.010;20.020;2023-07-22T16:48:28;5.88;;;3.97;;
28007;SDS011;15333;50.010;20.020;2023-07-22T16:51:29;4.43;;;3.65;;
28007;SDS011;15333;50.010;20.020;2023-07-22T16:54:30;3.70;;;3.40;;
28007;SDS011;15333;50.010;20.020;2023-07-22T16:57:32;5.88;;;4.38;;
28007;SDS011;15333;50.010;20.020;2023-07-22T17:00:33;5.40;;;4.13;;
28007;SDS011;15333;50.010;20.020;2023-07-22T17:03:35;5.05;;;3.80;;
28007;SDS011;15333;50.010;20.020;2023-07-22T17:06:36;6.03;;;4.22;;
28007;SDS011;15333;50.010;20.020;2023-07-22T17:09:37;4.72;;;4.20;;
28007;SDS011;15333;50.010;20.020;2023-07-22T17:12:38;8.15;;;4.30;;
28007;SDS011;15333;50.010;20.020;2023-07-22T17:15:39;5.88;;;4.10;;
28007;SDS011;15333;50.010;20.020;2023-07-22T17:18:40;9.75;;;4.68;;
28007;SDS011;15333;50.010;20.020;2023-07-22T17:21:41;6.35;;;4.20;;
28007;SDS011;15333;50.010;20.020;2023-07-22T17:24:42;5.20;;;4.38;;
28007;SDS011;15333;50.010;20.020;2023-07-22T17:27:43;9.13;;;4.50;;
28007;SDS011;15333;50.010;20.020;2023-07-22T17:30:44;5.60;;;4.55;;
28007;SDS011;15333;50.010;20.020;2023-07-22T17:33:44;6.28;;;4.65;;
28007;SDS011;15333;50.010;20.020;2023-07-22T17:36:46;6.53;;;4.05;;
28007;SDS011;15333;50.010;20.020;2023-07-22T17:39:46;9.57;;;4.40;;
28007;SDS011;15333;50.010;20.020;2023-07-22T17:42:47;9.10;;;4.93;;
28007;SDS011;15333;50.010;20.020;2023-07-22T17:45:48;6.47;;;4.30;;
28007;SDS011;15333;50.010;20.020;2023-07-22T17:48:49;9.13;;;4.43;;
28007;SDS011;15333;50.010;20.020;2023-07-22T17:51:50;8.65;;;4.35;;
28007;SDS011;15333;50.010;20.020;2023-07-22T17:54:51;7.35;;;4.53;;